^^
Meteo Knjazevac Station Historical Data
Daily Summary for April 9, 2021 Units:  Metric    English   Both
Daily Weekly Monthly Yearly Custom
  High: Low: Average:
Temperature: 34.7 °C 17.9 °C 25.7 °C
Dew Point: 23.3 °C 16.9 °C 20.3 °C
Humidity: 96% 49% 75%
Wind Speed: 9.7km/h 0km/h 3.1km/h
Wind Gust: 20.9km/h - -
Wind- - SSE
Pressure: 1022.2 hPa 1017.2 hPa -
Precipitation: 0 mm    
Historical Graphs
 
 
Tabular Data for April 9, 2021
Time Temperature Dew Point Pressure Wind Wind Speed Wind Gust Humidity Rainfall Rate (Hourly) solar Conditions
00:00 22.3 °C 19.4 °C 1021.9 hPa SW 1.6 km/h 4.8 km/h 84% 0 mm 0 W/m2
00:10 22.2 °C 19.4 °C 1021.9 hPa SW 1.6 km/h 4.8 km/h 84% 0 mm 0 W/m2
00:20 21.9 °C 19.1 °C 1021.9 hPa SSE 3.2 km/h 8 km/h 84% 0 mm 0 W/m2
00:30 21.8 °C 19.2 °C 1021.9 hPa SW 1.6 km/h 8 km/h 85% 0 mm 0 W/m2
00:40 21.6 °C 18.9 °C 1022.2 hPa Calm   4.8 km/h 85% 0 mm 0 W/m2
00:50 21.5 °C 18.9 °C 1022.2 hPa NNE 1.6 km/h 3.2 km/h 85% 0 mm 0 W/m2
01:00 21.4 °C 18.9 °C 1022.2 hPa SE 3.2 km/h 4.8 km/h 86% 0 mm 0 W/m2
01:10 21.3 °C 18.9 °C 1022.2 hPa Calm   3.2 km/h 86% 0 mm 0 W/m2
01:20 21.2 °C 18.8 °C 1022.2 hPa Calm   1.6 km/h 86% 0 mm 0 W/m2
01:30 21.1 °C 19.1 °C 1022.2 hPa Calm   3.2 km/h 88% 0 mm 0 W/m2
01:40 21.1 °C 19.1 °C 1022.2 hPa NNW 1.6 km/h 4.8 km/h 88% 0 mm 0 W/m2
01:50 20.8 °C 18.8 °C 1022.2 hPa Calm   4.8 km/h 88% 0 mm 0 W/m2
02:00 20.8 °C 18.7 °C 1022.2 hPa Calm   3.2 km/h 88% 0 mm 0 W/m2
02:10 20.7 °C 18.7 °C 1022.2 hPa North 1.6 km/h 3.2 km/h 88% 0 mm 0 W/m2
02:20 20.6 °C 18.7 °C 1022.2 hPa Calm   3.2 km/h 89% 0 mm 0 W/m2
02:30 20.4 °C 18.5 °C 1022.2 hPa Calm   3.2 km/h 89% 0 mm 0 W/m2
02:40 20.3 °C 18.4 °C 1022.2 hPa Calm   1.6 km/h 89% 0 mm 0 W/m2
02:50 20 °C 18.1 °C 1022.2 hPa Calm   3.2 km/h 89% 0 mm 0 W/m2
03:00 19.9 °C 18.2 °C 1022.2 hPa Calm     90% 0 mm 0 W/m2
03:10 19.8 °C 18.1 °C 1022.2 hPa Calm   3.2 km/h 90% 0 mm 0 W/m2
03:20 19.6 °C 17.9 °C 1022.2 hPa Calm     90% 0 mm 0 W/m2
03:30 19.6 °C 17.8 °C 1022.2 hPa Calm   3.2 km/h 90% 0 mm 0 W/m2
03:40 19.3 °C 17.8 °C 1022.2 hPa Calm   3.2 km/h 91% 0 mm 0 W/m2
03:50 19.2 °C 17.7 °C 1022.2 hPa NNW 1.6 km/h 3.2 km/h 91% 0 mm 0 W/m2
04:00 19.1 °C 17.6 °C 1022.2 hPa NNW 1.6 km/h 3.2 km/h 91% 0 mm 0 W/m2
04:10 19 °C 17.5 °C 1022.2 hPa NNE 1.6 km/h 4.8 km/h 91% 0 mm 0 W/m2
04:20 19 °C 17.8 °C 1022.2 hPa NNE 1.6 km/h 6.4 km/h 93% 0 mm 0 W/m2
04:30 18.8 °C 17.3 °C 1022.2 hPa WNW 1.6 km/h 3.2 km/h 91% 0 mm 0 W/m2
04:40 18.6 °C 17.4 °C 1022.2 hPa Calm   3.2 km/h 93% 0 mm 0 W/m2
04:50 18.4 °C 17.4 °C 1022.2 hPa WNW 1.6 km/h 3.2 km/h 94% 0 mm 0 W/m2
05:00 18.3 °C 17.2 °C 1022.2 hPa Calm   1.6 km/h 93% 0 mm 4 W/m2
05:10 18.3 °C 17.2 °C 1022.2 hPa Calm   1.6 km/h 93% 0 mm 9 W/m2
05:20 18.2 °C 17.2 °C 1022.2 hPa Calm   3.2 km/h 94% 0 mm 16 W/m2
05:30 18.1 °C 17.1 °C 1022.2 hPa WNW 1.6 km/h 3.2 km/h 94% 0 mm 25 W/m2
05:40 17.9 °C 16.9 °C 1022.2 hPa West 1.6 km/h 3.2 km/h 94% 0 mm 35 W/m2
05:50 17.9 °C 17.1 °C 1022.2 hPa West 1.6 km/h 6.4 km/h 95% 0 mm 45 W/m2
06:00 17.9 °C 17.1 °C 1022.2 hPa West 1.6 km/h 4.8 km/h 95% 0 mm 55 W/m2
06:10 17.9 °C 17.1 °C 1022.2 hPa Calm   1.6 km/h 95% 0 mm 94 W/m2
06:20 17.9 °C 17.1 °C 1022.2 hPa Calm   1.6 km/h 95% 0 mm 119 W/m2
06:30 18 °C 17.2 °C 1022.2 hPa WSW 1.6 km/h 3.2 km/h 95% 0 mm 145 W/m2
06:40 18.1 °C 17.3 °C 1022.2 hPa West 1.6 km/h 3.2 km/h 95% 0 mm 174 W/m2
06:50 18.2 °C 17.4 °C 1022.2 hPa Calm   1.6 km/h 95% 0 mm 200 W/m2
07:00 18.4 °C 17.8 °C 1022.2 hPa ENE 1.6 km/h 6.4 km/h 96% 0 mm 233 W/m2
07:10 18.8 °C 18 °C 1022.2 hPa East 1.6 km/h 8 km/h 95% 0 mm 265 W/m2
07:20 19.2 °C 18.3 °C 1022.2 hPa NE 1.6 km/h 6.4 km/h 95% 0 mm 303 W/m2
07:30 19.5 °C 18.5 °C 1022.2 hPa Calm   6.4 km/h 94% 0 mm 348 W/m2
07:40 19.8 °C 18.8 °C 1022.2 hPa WNW 1.6 km/h 3.2 km/h 94% 0 mm 382 W/m2
07:50 20.2 °C 19.1 °C 1022.2 hPa Calm   4.8 km/h 93% 0 mm 421 W/m2
08:00 20.5 °C 19.3 °C 1022.2 hPa NW 1.6 km/h 8 km/h 93% 0 mm 453 W/m2
08:10 20.9 °C 19.4 °C 1022.2 hPa NNE 4.8 km/h 16.1 km/h 91% 0 mm 495 W/m2
08:20 21.4 °C 19.7 °C 1022.2 hPa NNE 3.2 km/h 8 km/h 90% 0 mm 527 W/m2
08:30 21.9 °C 20 °C 1021.9 hPa NNE 1.6 km/h 12.9 km/h 89% 0 mm 559 W/m2
08:40 22.4 °C 20.3 °C 1021.9 hPa ENE 3.2 km/h 11.3 km/h 88% 0 mm 589 W/m2
08:50 22.8 °C 20.3 °C 1021.9 hPa NE 1.6 km/h 9.7 km/h 86% 0 mm 625 W/m2
09:00 23.6 °C 20.9 °C 1021.6 hPa NNE 3.2 km/h 9.7 km/h 85% 0 mm 652 W/m2
09:10 24.6 °C 21.5 °C 1021.6 hPa North 1.6 km/h 8 km/h 83% 0 mm 679 W/m2
09:20 25.4 °C 21.7 °C 1021.6 hPa North 3.2 km/h 8 km/h 80% 0 mm 705 W/m2
09:30 26.3 °C 22.1 °C 1021.6 hPa NNE 3.2 km/h 8 km/h 78% 0 mm 730 W/m2
09:40 27 °C 21.9 °C 1021.2 hPa NE 1.6 km/h 8 km/h 74% 0 mm 754 W/m2
09:50 27.7 °C 22.2 °C 1021.2 hPa NE 3.2 km/h 11.3 km/h 72% 0 mm 776 W/m2
10:00 27.9 °C 21.9 °C 1021.2 hPa NE 1.6 km/h 8 km/h 70% 0 mm 798 W/m2
10:10 28.5 °C 22.2 °C 1021.2 hPa SW 4.8 km/h 9.7 km/h 69% 0 mm 819 W/m2
10:20 28.9 °C 22.4 °C 1020.9 hPa South 3.2 km/h 11.3 km/h 68% 0 mm 838 W/m2
10:30 29.3 °C 22.1 °C 1020.9 hPa NNW 4.8 km/h 9.7 km/h 65% 0 mm 857 W/m2
10:40 29.7 °C 22.2 °C 1020.9 hPa North 4.8 km/h 14.5 km/h 64% 0 mm 874 W/m2
10:50 30 °C 22.4 °C 1020.9 hPa North 8 km/h 16.1 km/h 64% 0 mm 202 W/m2
11:00 30.5 °C 22.4 °C 1020.5 hPa North 3.2 km/h 17.7 km/h 62% 0 mm 904 W/m2
11:10 30.6 °C 21.9 °C 1020.5 hPa North 4.8 km/h 16.1 km/h 60% 0 mm 917 W/m2
11:20 30.7 °C 22 °C 1020.2 hPa NW 4.8 km/h 12.9 km/h 60% 0 mm 263 W/m2
11:30 31.2 °C 22.5 °C 1020.2 hPa North 3.2 km/h 16.1 km/h 60% 0 mm 939 W/m2
11:40 31.5 °C 22.2 °C 1020.2 hPa North 8 km/h 16.1 km/h 58% 0 mm 948 W/m2
11:50 31.6 °C 22.1 °C 1020.2 hPa NNE 8 km/h 14.5 km/h 57% 0 mm 955 W/m2
12:00 31.7 °C 22.1 °C 1019.9 hPa North 3.2 km/h 12.9 km/h 57% 0 mm 961 W/m2
12:10 31.9 °C 21.7 °C 1019.9 hPa North 4.8 km/h 12.9 km/h 55% 0 mm 965 W/m2
12:20 31.9 °C 22.3 °C 1019.9 hPa NNW 3.2 km/h 11.3 km/h 57% 0 mm 968 W/m2
12:30 32.2 °C 22.9 °C 1019.5 hPa North 8 km/h 12.9 km/h 58% 0 mm 474 W/m2
12:40 32.5 °C 22.3 °C 1019.5 hPa North 9.7 km/h 16.1 km/h 55% 0 mm 553 W/m2
12:50 32.6 °C 22.9 °C 1019.2 hPa NNW 9.7 km/h 19.3 km/h 57% 0 mm 896 W/m2
13:00 32.8 °C 22.6 °C 1019.2 hPa North 9.7 km/h 20.9 km/h 55% 0 mm 395 W/m2
13:10 32.8 °C 22.6 °C 1019.2 hPa North 4.8 km/h 19.3 km/h 55% 0 mm 960 W/m2
13:20 33.2 °C 22.9 °C 1019.2 hPa North 8 km/h 14.5 km/h 55% 0 mm 954 W/m2
13:30 33.5 °C 22.9 °C 1018.8 hPa NNE 4.8 km/h 12.9 km/h 54% 0 mm 946 W/m2
13:40 33.6 °C 23 °C 1018.8 hPa NNE 4.8 km/h 20.9 km/h 54% 0 mm 937 W/m2
13:50 33.8 °C 23.2 °C 1018.8 hPa North 8 km/h 12.9 km/h 54% 0 mm 926 W/m2
14:00 34 °C 23.1 °C 1018.8 hPa North 3.2 km/h 12.9 km/h 53% 0 mm 914 W/m2
14:10 34.1 °C 22.8 °C 1018.5 hPa NNE 9.7 km/h 20.9 km/h 52% 0 mm 901 W/m2
14:20 34 °C 23.1 °C 1018.5 hPa North 4.8 km/h 19.3 km/h 53% 0 mm 886 W/m2
14:30 34.3 °C 23 °C 1018.5 hPa North 8 km/h 19.3 km/h 52% 0 mm 870 W/m2
14:40 34.2 °C 22.9 °C 1018.5 hPa North 4.8 km/h 17.7 km/h 52% 0 mm 853 W/m2
14:50 34.4 °C 22.5 °C 1018.2 hPa North 8 km/h 16.1 km/h 50% 0 mm 834 W/m2
15:00 34.6 °C 23.3 °C 1018.2 hPa North 3.2 km/h 14.5 km/h 52% 0 mm 815 W/m2
15:10 34.6 °C 22.7 °C 1017.8 hPa North 8 km/h 16.1 km/h 50% 0 mm 794 W/m2
15:20 34.7 °C 22.7 °C 1017.8 hPa North 3.2 km/h 14.5 km/h 50% 0 mm 772 W/m2
15:30 34.7 °C 22.7 °C 1017.8 hPa North 3.2 km/h 19.3 km/h 50% 0 mm 749 W/m2
15:40 34.6 °C 22.7 °C 1017.8 hPa ENE 4.8 km/h 14.5 km/h 50% 0 mm 724 W/m2
15:50 34.6 °C 22.3 °C 1017.8 hPa NE 4.8 km/h 12.9 km/h 49% 0 mm 699 W/m2
16:00 34.6 °C 22.7 °C 1017.8 hPa North 8 km/h 19.3 km/h 50% 0 mm 673 W/m2
16:10 34.6 °C 22.7 °C 1017.8 hPa NNE 4.8 km/h 14.5 km/h 50% 0 mm 647 W/m2
16:20 34.6 °C 22.7 °C 1017.8 hPa NNW 3.2 km/h 14.5 km/h 50% 0 mm 619 W/m2
16:30 34.5 °C 22.2 °C 1017.8 hPa NNE 4.8 km/h 12.9 km/h 49% 0 mm 591 W/m2
16:40 34.5 °C 22.6 °C 1017.5 hPa ENE 3.2 km/h 16.1 km/h 50% 0 mm 562 W/m2
16:50 34.2 °C 21.9 °C 1017.5 hPa ENE 4.8 km/h 19.3 km/h 49% 0 mm 533 W/m2
17:00 34 °C 21.8 °C 1017.2 hPa ENE 8 km/h 20.9 km/h 49% 0 mm 503 W/m2
17:10 33.8 °C 21.9 °C 1017.2 hPa NE 4.8 km/h 16.1 km/h 50% 0 mm 345 W/m2
Knjazevac, Serbia
Compliments of Weather Underground - 2 mb